sensor_id;sensor_type;location;lat;lon;timestamp;P1;durP1;ratioP1;P2;durP2;ratioP2
74904;SDS011;63465;50.862;6.220;2023-06-26T00:01:12;6.40;;;5.23;;
74904;SDS011;63465;50.862;6.220;2023-06-26T00:03:38;6.60;;;5.90;;
74904;SDS011;63465;50.862;6.220;2023-06-26T00:06:04;8.00;;;5.67;;
74904;SDS011;63465;50.862;6.220;2023-06-26T00:08:29;6.43;;;5.77;;
74904;SDS011;63465;50.862;6.220;2023-06-26T00:10:54;7.20;;;5.13;;
74904;SDS011;63465;50.862;6.220;2023-06-26T00:13:20;5.77;;;5.17;;
74904;SDS011;63465;50.862;6.220;2023-06-26T00:15:45;6.13;;;5.53;;
74904;SDS011;63465;50.862;6.220;2023-06-26T00:18:10;8.90;;;6.50;;
74904;SDS011;63465;50.862;6.220;2023-06-26T00:20:36;5.80;;;5.20;;
74904;SDS011;63465;50.862;6.220;2023-06-26T00:23:01;7.93;;;6.07;;
74904;SDS011;63465;50.862;6.220;2023-06-26T00:25:29;6.00;;;5.40;;
74904;SDS011;63465;50.862;6.220;2023-06-26T00:27:54;8.90;;;5.57;;
74904;SDS011;63465;50.862;6.220;2023-06-26T00:30:19;5.63;;;5.00;;
74904;SDS011;63465;50.862;6.220;2023-06-26T00:32:45;7.93;;;6.57;;
74904;SDS011;63465;50.862;6.220;2023-06-26T00:35:10;7.47;;;6.07;;
74904;SDS011;63465;50.862;6.220;2023-06-26T00:37:35;7.13;;;6.20;;
74904;SDS011;63465;50.862;6.220;2023-06-26T00:40:00;7.40;;;6.07;;
74904;SDS011;63465;50.862;6.220;2023-06-26T00:42:26;7.23;;;5.60;;
74904;SDS011;63465;50.862;6.220;2023-06-26T00:44:51;9.10;;;6.50;;
74904;SDS011;63465;50.862;6.220;2023-06-26T00:47:16;7.60;;;5.33;;
74904;SDS011;63465;50.862;6.220;2023-06-26T00:49:42;6.93;;;5.60;;
74904;SDS011;63465;50.862;6.220;2023-06-26T00:52:08;6.03;;;5.33;;
74904;SDS011;63465;50.862;6.220;2023-06-26T00:54:34;6.43;;;5.63;;
74904;SDS011;63465;50.862;6.220;2023-06-26T00:56:59;6.87;;;5.87;;
74904;SDS011;63465;50.862;6.220;2023-06-26T00:59:24;7.23;;;6.10;;
74904;SDS011;63465;50.862;6.220;2023-06-26T01:01:50;9.53;;;5.83;;
74904;SDS011;63465;50.862;6.220;2023-06-26T01:04:15;6.70;;;5.57;;
74904;SDS011;63465;50.862;6.220;2023-06-26T01:06:44;8.63;;;6.23;;
74904;SDS011;63465;50.862;6.220;2023-06-26T01:09:15;10.30;;;5.70;;
74904;SDS011;63465;50.862;6.220;2023-06-26T01:11:44;6.90;;;6.10;;
74904;SDS011;63465;50.862;6.220;2023-06-26T01:14:10;11.40;;;6.97;;
74904;SDS011;63465;50.862;6.220;2023-06-26T01:16:35;8.50;;;6.80;;
74904;SDS011;63465;50.862;6.220;2023-06-26T01:19:03;7.00;;;5.60;;
74904;SDS011;63465;50.862;6.220;2023-06-26T01:21:34;8.23;;;6.17;;
74904;SDS011;63465;50.862;6.220;2023-06-26T01:24:09;6.30;;;5.70;;
74904;SDS011;63465;50.862;6.220;2023-06-26T01:26:45;8.30;;;6.10;;
74904;SDS011;63465;50.862;6.220;2023-06-26T01:29:13;12.40;;;6.17;;
74904;SDS011;63465;50.862;6.220;2023-06-26T01:31:42;6.17;;;5.53;;
74904;SDS011;63465;50.862;6.220;2023-06-26T01:34:09;8.93;;;5.60;;
74904;SDS011;63465;50.862;6.220;2023-06-26T01:36:34;6.93;;;5.43;;
74904;SDS011;63465;50.862;6.220;2023-06-26T01:39:03;6.37;;;5.70;;
74904;SDS011;63465;50.862;6.220;2023-06-26T01:41:28;6.33;;;5.50;;
74904;SDS011;63465;50.862;6.220;2023-06-26T01:46:36;8.53;;;5.73;;
74904;SDS011;63465;50.862;6.220;2023-06-26T01:49:21;6.77;;;6.07;;
74904;SDS011;63465;50.862;6.220;2023-06-26T01:51:55;6.50;;;5.27;;
74904;SDS011;63465;50.862;6.220;2023-06-26T01:54:25;7.23;;;5.80;;
74904;SDS011;63465;50.862;6.220;2023-06-26T01:56:55;8.97;;;6.37;;
74904;SDS011;63465;50.862;6.220;2023-06-26T01:59:23;7.20;;;6.13;;
74904;SDS011;63465;50.862;6.220;2023-06-26T02:01:51;7.50;;;5.57;;
74904;SDS011;63465;50.862;6.220;2023-06-26T02:04:17;7.80;;;5.80;;
74904;SDS011;63465;50.862;6.220;2023-06-26T02:06:42;7.33;;;5.87;;
74904;SDS011;63465;50.862;6.220;2023-06-26T02:09:08;6.90;;;6.00;;
74904;SDS011;63465;50.862;6.220;2023-06-26T02:11:33;6.87;;;5.50;;
74904;SDS011;63465;50.862;6.220;2023-06-26T02:13:59;9.90;;;6.43;;
74904;SDS011;63465;50.862;6.220;2023-06-26T02:16:24;10.10;;;6.20;;
74904;SDS011;63465;50.862;6.220;2023-06-26T02:18:49;6.93;;;5.73;;
74904;SDS011;63465;50.862;6.220;2023-06-26T02:21:14;10.40;;;6.30;;
74904;SDS011;63465;50.862;6.220;2023-06-26T02:23:40;7.80;;;6.03;;
74904;SDS011;63465;50.862;6.220;2023-06-26T02:26:05;7.53;;;6.57;;
74904;SDS011;63465;50.862;6.220;2023-06-26T02:28:30;11.50;;;6.50;;
74904;SDS011;63465;50.862;6.220;2023-06-26T02:30:56;7.87;;;5.40;;
74904;SDS011;63465;50.862;6.220;2023-06-26T02:33:21;7.77;;;6.20;;
74904;SDS011;63465;50.862;6.220;2023-06-26T02:35:47;8.23;;;6.30;;
74904;SDS011;63465;50.862;6.220;2023-06-26T02:38:12;11.67;;;6.40;;
74904;SDS011;63465;50.862;6.220;2023-06-26T02:40:38;7.83;;;6.60;;
74904;SDS011;63465;50.862;6.220;2023-06-26T02:43:03;8.23;;;6.70;;
74904;SDS011;63465;50.862;6.220;2023-06-26T02:45:28;10.17;;;6.60;;
74904;SDS011;63465;50.862;6.220;2023-06-26T02:47:53;8.03;;;6.20;;
74904;SDS011;63465;50.862;6.220;2023-06-26T02:50:19;10.20;;;6.90;;
74904;SDS011;63465;50.862;6.220;2023-06-26T02:52:44;8.60;;;6.47;;
74904;SDS011;63465;50.862;6.220;2023-06-26T02:55:09;6.50;;;5.87;;
74904;SDS011;63465;50.862;6.220;2023-06-26T02:57:34;11.50;;;6.90;;
74904;SDS011;63465;50.862;6.220;2023-06-26T03:00:00;8.73;;;6.23;;
74904;SDS011;63465;50.862;6.220;2023-06-26T03:02:25;10.10;;;6.93;;
74904;SDS011;63465;50.862;6.220;2023-06-26T03:04:51;7.87;;;6.50;;
74904;SDS011;63465;50.862;6.220;2023-06-26T03:07:16;6.73;;;6.03;;
74904;SDS011;63465;50.862;6.220;2023-06-26T03:09:41;6.53;;;5.73;;
74904;SDS011;63465;50.862;6.220;2023-06-26T03:12:07;7.77;;;6.07;;
74904;SDS011;63465;50.862;6.220;2023-06-26T03:14:33;6.20;;;5.40;;
74904;SDS011;63465;50.862;6.220;2023-06-26T03:16:58;7.73;;;5.80;;
74904;SDS011;63465;50.862;6.220;2023-06-26T03:19:28;9.00;;;5.03;;
74904;SDS011;63465;50.862;6.220;2023-06-26T03:21:53;8.37;;;5.40;;
74904;SDS011;63465;50.862;6.220;2023-06-26T03:24:20;7.53;;;5.40;;
74904;SDS011;63465;50.862;6.220;2023-06-26T03:26:45;6.63;;;4.83;;
74904;SDS011;63465;50.862;6.220;2023-06-26T03:29:10;10.53;;;6.10;;
74904;SDS011;63465;50.862;6.220;2023-06-26T03:31:36;5.10;;;4.60;;
74904;SDS011;63465;50.862;6.220;2023-06-26T03:34:01;8.90;;;4.80;;
74904;SDS011;63465;50.862;6.220;2023-06-26T03:36:26;9.87;;;5.43;;
74904;SDS011;63465;50.862;6.220;2023-06-26T03:38:52;7.07;;;5.10;;
74904;SDS011;63465;50.862;6.220;2023-06-26T03:41:21;10.07;;;6.37;;
74904;SDS011;63465;50.862;6.220;2023-06-26T03:43:47;8.20;;;5.73;;
74904;SDS011;63465;50.862;6.220;2023-06-26T03:46:12;5.80;;;4.63;;
74904;SDS011;63465;50.862;6.220;2023-06-26T03:48:37;9.00;;;5.20;;
74904;SDS011;63465;50.862;6.220;2023-06-26T03:51:03;8.73;;;5.50;;
74904;SDS011;63465;50.862;6.220;2023-06-26T03:53:28;10.57;;;5.07;;
74904;SDS011;63465;50.862;6.220;2023-06-26T03:55:54;9.60;;;5.23;;
74904;SDS011;63465;50.862;6.220;2023-06-26T03:58:19;7.83;;;4.60;;
74904;SDS011;63465;50.862;6.220;2023-06-26T04:00:44;8.07;;;4.80;;
74904;SDS011;63465;50.862;6.220;2023-06-26T04:03:11;9.03;;;5.77;;
74904;SDS011;63465;50.862;6.220;2023-06-26T04:05:36;8.60;;;5.10;;
74904;SDS011;63465;50.862;6.220;2023-06-26T04:08:01;11.97;;;5.57;;
74904;SDS011;63465;50.862;6.220;2023-06-26T04:10:26;7.33;;;5.00;;
74904;SDS011;63465;50.862;6.220;2023-06-26T04:12:52;9.00;;;4.80;;
74904;SDS011;63465;50.862;6.220;2023-06-26T04:15:18;7.60;;;5.30;;
74904;SDS011;63465;50.862;6.220;2023-06-26T04:17:43;8.60;;;5.10;;
74904;SDS011;63465;50.862;6.220;2023-06-26T04:20:08;12.43;;;5.07;;
74904;SDS011;63465;50.862;6.220;2023-06-26T04:22:34;7.17;;;5.20;;
74904;SDS011;63465;50.862;6.220;2023-06-26T04:25:02;9.20;;;4.40;;
74904;SDS011;63465;50.862;6.220;2023-06-26T04:27:28;7.97;;;5.37;;
74904;SDS011;63465;50.862;6.220;2023-06-26T04:29:53;7.17;;;4.40;;
74904;SDS011;63465;50.862;6.220;2023-06-26T04:32:19;6.60;;;4.33;;
74904;SDS011;63465;50.862;6.220;2023-06-26T04:34:44;8.07;;;5.07;;
74904;SDS011;63465;50.862;6.220;2023-06-26T04:37:09;12.50;;;4.70;;
74904;SDS011;63465;50.862;6.220;2023-06-26T04:39:35;6.73;;;4.40;;
74904;SDS011;63465;50.862;6.220;2023-06-26T04:42:02;6.77;;;4.70;;
74904;SDS011;63465;50.862;6.220;2023-06-26T04:44:28;5.23;;;3.83;;
74904;SDS011;63465;50.862;6.220;2023-06-26T04:46:53;6.10;;;4.47;;
74904;SDS011;63465;50.862;6.220;2023-06-26T04:49:18;7.50;;;3.83;;
74904;SDS011;63465;50.862;6.220;2023-06-26T04:51:44;8.27;;;4.30;;
74904;SDS011;63465;50.862;6.220;2023-06-26T04:54:10;7.53;;;4.00;;
74904;SDS011;63465;50.862;6.220;2023-06-26T04:56:36;6.70;;;3.80;;
74904;SDS011;63465;50.862;6.220;2023-06-26T04:59:02;6.23;;;4.00;;
74904;SDS011;63465;50.862;6.220;2023-06-26T05:01:28;11.70;;;3.93;;
74904;SDS011;63465;50.862;6.220;2023-06-26T05:03:55;6.30;;;4.37;;
74904;SDS011;63465;50.862;6.220;2023-06-26T05:06:21;12.40;;;3.93;;
74904;SDS011;63465;50.862;6.220;2023-06-26T05:08:46;6.53;;;3.60;;
74904;SDS011;63465;50.862;6.220;2023-06-26T05:11:12;13.37;;;4.07;;
74904;SDS011;63465;50.862;6.220;2023-06-26T05:13:37;6.83;;;4.37;;
74904;SDS011;63465;50.862;6.220;2023-06-26T05:16:02;9.63;;;4.20;;
74904;SDS011;63465;50.862;6.220;2023-06-26T05:18:28;5.37;;;3.60;;
74904;SDS011;63465;50.862;6.220;2023-06-26T05:20:53;6.70;;;4.03;;
74904;SDS011;63465;50.862;6.220;2023-06-26T05:23:18;8.30;;;4.17;;
74904;SDS011;63465;50.862;6.220;2023-06-26T05:25:44;7.00;;;4.43;;
74904;SDS011;63465;50.862;6.220;2023-06-26T05:28:10;9.73;;;4.33;;
74904;SDS011;63465;50.862;6.220;2023-06-26T05:30:37;5.87;;;4.20;;
74904;SDS011;63465;50.862;6.220;2023-06-26T05:33:03;7.43;;;4.37;;
74904;SDS011;63465;50.862;6.220;2023-06-26T05:35:29;10.27;;;4.67;;
74904;SDS011;63465;50.862;6.220;2023-06-26T05:37:55;9.60;;;4.37;;
74904;SDS011;63465;50.862;6.220;2023-06-26T05:40:22;11.20;;;4.87;;
74904;SDS011;63465;50.862;6.220;2023-06-26T05:42:47;4.90;;;4.13;;
74904;SDS011;63465;50.862;6.220;2023-06-26T05:45:13;9.80;;;4.77;;
74904;SDS011;63465;50.862;6.220;2023-06-26T05:47:38;8.93;;;4.20;;
74904;SDS011;63465;50.862;6.220;2023-06-26T05:50:04;5.93;;;4.40;;
74904;SDS011;63465;50.862;6.220;2023-06-26T05:52:30;6.70;;;4.47;;
74904;SDS011;63465;50.862;6.220;2023-06-26T05:54:56;11.53;;;4.70;;
74904;SDS011;63465;50.862;6.220;2023-06-26T05:57:26;9.57;;;4.33;;
74904;SDS011;63465;50.862;6.220;2023-06-26T05:59:53;8.43;;;4.00;;
74904;SDS011;63465;50.862;6.220;2023-06-26T06:02:18;11.50;;;4.20;;
74904;SDS011;63465;50.862;6.220;2023-06-26T06:04:43;10.03;;;6.10;;
74904;SDS011;63465;50.862;6.220;2023-06-26T06:07:09;7.60;;;4.83;;
74904;SDS011;63465;50.862;6.220;2023-06-26T06:09:34;10.83;;;4.93;;
74904;SDS011;63465;50.862;6.220;2023-06-26T06:11:59;8.20;;;4.37;;
74904;SDS011;63465;50.862;6.220;2023-06-26T06:14:26;8.60;;;4.97;;
74904;SDS011;63465;50.862;6.220;2023-06-26T06:16:52;9.50;;;4.73;;
74904;SDS011;63465;50.862;6.220;2023-06-26T06:19:17;12.47;;;4.93;;
74904;SDS011;63465;50.862;6.220;2023-06-26T06:21:42;8.23;;;4.50;;
74904;SDS011;63465;50.862;6.220;2023-06-26T06:24:08;9.23;;;5.00;;
74904;SDS011;63465;50.862;6.220;2023-06-26T06:26:34;16.93;;;6.47;;
74904;SDS011;63465;50.862;6.220;2023-06-26T06:29:00;14.17;;;5.73;;
74904;SDS011;63465;50.862;6.220;2023-06-26T06:31:25;9.30;;;5.10;;
74904;SDS011;63465;50.862;6.220;2023-06-26T06:33:53;14.73;;;5.27;;
74904;SDS011;63465;50.862;6.220;2023-06-26T06:36:21;9.67;;;5.60;;
74904;SDS011;63465;50.862;6.220;2023-06-26T06:38:46;11.53;;;5.20;;
74904;SDS011;63465;50.862;6.220;2023-06-26T06:41:12;9.37;;;4.70;;
74904;SDS011;63465;50.862;6.220;2023-06-26T06:43:37;10.03;;;4.70;;
74904;SDS011;63465;50.862;6.220;2023-06-26T06:46:03;13.00;;;5.47;;
74904;SDS011;63465;50.862;6.220;2023-06-26T06:48:29;11.87;;;6.00;;
74904;SDS011;63465;50.862;6.220;2023-06-26T06:50:54;9.53;;;5.07;;
74904;SDS011;63465;50.862;6.220;2023-06-26T06:53:19;15.80;;;5.67;;
74904;SDS011;63465;50.862;6.220;2023-06-26T06:55:48;11.43;;;4.73;;
74904;SDS011;63465;50.862;6.220;2023-06-26T06:58:14;14.30;;;4.40;;
74904;SDS011;63465;50.862;6.220;2023-06-26T07:00:41;7.27;;;4.30;;
74904;SDS011;63465;50.862;6.220;2023-06-26T07:03:06;7.90;;;4.30;;
74904;SDS011;63465;50.862;6.220;2023-06-26T07:05:32;7.37;;;4.27;;
74904;SDS011;63465;50.862;6.220;2023-06-26T07:07:57;10.70;;;4.27;;
74904;SDS011;63465;50.862;6.220;2023-06-26T07:10:22;11.47;;;4.13;;
74904;SDS011;63465;50.862;6.220;2023-06-26T07:12:47;7.40;;;3.90;;
74904;SDS011;63465;50.862;6.220;2023-06-26T07:15:13;9.90;;;5.30;;
74904;SDS011;63465;50.862;6.220;2023-06-26T07:17:38;8.83;;;4.40;;
74904;SDS011;63465;50.862;6.220;2023-06-26T07:20:04;9.33;;;4.40;;
74904;SDS011;63465;50.862;6.220;2023-06-26T07:22:32;10.63;;;3.90;;
74904;SDS011;63465;50.862;6.220;2023-06-26T07:24:57;9.50;;;4.30;;
74904;SDS011;63465;50.862;6.220;2023-06-26T07:27:23;9.63;;;4.03;;
74904;SDS011;63465;50.862;6.220;2023-06-26T07:29:48;9.53;;;3.77;;
74904;SDS011;63465;50.862;6.220;2023-06-26T07:32:13;8.07;;;4.40;;
74904;SDS011;63465;50.862;6.220;2023-06-26T07:34:39;7.20;;;3.90;;
74904;SDS011;63465;50.862;6.220;2023-06-26T07:37:04;14.97;;;4.43;;
74904;SDS011;63465;50.862;6.220;2023-06-26T07:39:29;10.17;;;4.53;;
74904;SDS011;63465;50.862;6.220;2023-06-26T07:41:55;9.37;;;4.20;;
74904;SDS011;63465;50.862;6.220;2023-06-26T07:44:21;9.60;;;3.93;;
74904;SDS011;63465;50.862;6.220;2023-06-26T07:46:47;7.80;;;4.03;;
74904;SDS011;63465;50.862;6.220;2023-06-26T07:49:12;9.87;;;4.53;;
74904;SDS011;63465;50.862;6.220;2023-06-26T07:51:38;8.03;;;4.50;;
74904;SDS011;63465;50.862;6.220;2023-06-26T07:54:03;6.47;;;4.07;;
74904;SDS011;63465;50.862;6.220;2023-06-26T07:56:29;12.07;;;4.27;;
74904;SDS011;63465;50.862;6.220;2023-06-26T07:58:54;6.87;;;4.07;;
74904;SDS011;63465;50.862;6.220;2023-06-26T08:01:19;6.30;;;4.00;;
74904;SDS011;63465;50.862;6.220;2023-06-26T08:03:45;9.90;;;4.10;;
74904;SDS011;63465;50.862;6.220;2023-06-26T08:06:10;6.67;;;3.67;;
74904;SDS011;63465;50.862;6.220;2023-06-26T08:08:36;10.00;;;4.20;;
74904;SDS011;63465;50.862;6.220;2023-06-26T08:11:01;12.93;;;4.10;;
74904;SDS011;63465;50.862;6.220;2023-06-26T08:13:26;12.30;;;3.97;;
74904;SDS011;63465;50.862;6.220;2023-06-26T08:15:51;4.30;;;3.30;;
74904;SDS011;63465;50.862;6.220;2023-06-26T08:18:17;11.00;;;4.03;;
74904;SDS011;63465;50.862;6.220;2023-06-26T08:20:43;11.83;;;3.43;;
74904;SDS011;63465;50.862;6.220;2023-06-26T08:23:08;9.47;;;3.97;;
74904;SDS011;63465;50.862;6.220;2023-06-26T08:25:34;8.70;;;3.80;;
74904;SDS011;63465;50.862;6.220;2023-06-26T08:27:59;5.93;;;3.37;;
74904;SDS011;63465;50.862;6.220;2023-06-26T08:30:24;12.73;;;3.60;;
74904;SDS011;63465;50.862;6.220;2023-06-26T08:32:53;8.40;;;4.00;;
74904;SDS011;63465;50.862;6.220;2023-06-26T08:35:19;6.13;;;3.43;;
74904;SDS011;63465;50.862;6.220;2023-06-26T08:37:44;7.10;;;3.20;;
74904;SDS011;63465;50.862;6.220;2023-06-26T08:40:09;9.50;;;3.83;;
74904;SDS011;63465;50.862;6.220;2023-06-26T08:42:35;11.43;;;3.67;;
74904;SDS011;63465;50.862;6.220;2023-06-26T08:45:00;11.90;;;3.60;;
74904;SDS011;63465;50.862;6.220;2023-06-26T08:47:26;7.87;;;3.20;;
74904;SDS011;63465;50.862;6.220;2023-06-26T08:49:53;7.80;;;3.03;;
74904;SDS011;63465;50.862;6.220;2023-06-26T08:52:30;9.77;;;3.17;;
74904;SDS011;63465;50.862;6.220;2023-06-26T08:54:59;6.63;;;3.50;;
74904;SDS011;63465;50.862;6.220;2023-06-26T08:57:26;9.83;;;3.93;;
74904;SDS011;63465;50.862;6.220;2023-06-26T08:59:53;7.60;;;3.37;;
74904;SDS011;63465;50.862;6.220;2023-06-26T09:02:18;8.63;;;2.73;;
74904;SDS011;63465;50.862;6.220;2023-06-26T09:04:46;6.47;;;2.50;;
74904;SDS011;63465;50.862;6.220;2023-06-26T09:07:12;5.57;;;3.10;;
74904;SDS011;63465;50.862;6.220;2023-06-26T09:09:38;5.83;;;2.87;;
74904;SDS011;63465;50.862;6.220;2023-06-26T09:12:03;7.33;;;2.90;;
74904;SDS011;63465;50.862;6.220;2023-06-26T09:14:29;5.10;;;3.20;;
74904;SDS011;63465;50.862;6.220;2023-06-26T09:16:55;9.90;;;2.80;;
74904;SDS011;63465;50.862;6.220;2023-06-26T09:19:20;9.93;;;2.90;;
74904;SDS011;63465;50.862;6.220;2023-06-26T09:21:47;4.93;;;2.70;;
74904;SDS011;63465;50.862;6.220;2023-06-26T09:24:14;9.27;;;2.60;;
74904;SDS011;63465;50.862;6.220;2023-06-26T09:26:41;9.30;;;3.27;;
74904;SDS011;63465;50.862;6.220;2023-06-26T09:29:06;7.57;;;2.67;;
74904;SDS011;63465;50.862;6.220;2023-06-26T09:31:33;10.57;;;2.90;;
74904;SDS011;63465;50.862;6.220;2023-06-26T09:33:59;4.50;;;3.27;;
74904;SDS011;63465;50.862;6.220;2023-06-26T09:36:27;5.93;;;2.73;;
74904;SDS011;63465;50.862;6.220;2023-06-26T09:38:54;4.47;;;2.43;;
74904;SDS011;63465;50.862;6.220;2023-06-26T09:41:20;3.90;;;2.40;;
74904;SDS011;63465;50.862;6.220;2023-06-26T09:43:49;9.60;;;2.40;;
74904;SDS011;63465;50.862;6.220;2023-06-26T09:46:37;5.00;;;2.70;;
74904;SDS011;63465;50.862;6.220;2023-06-26T09:49:03;5.10;;;2.37;;
74904;SDS011;63465;50.862;6.220;2023-06-26T09:51:33;5.60;;;2.67;;
74904;SDS011;63465;50.862;6.220;2023-06-26T09:54:00;5.23;;;2.57;;
74904;SDS011;63465;50.862;6.220;2023-06-26T09:56:27;4.40;;;2.10;;
74904;SDS011;63465;50.862;6.220;2023-06-26T09:58:56;6.30;;;1.90;;
74904;SDS011;63465;50.862;6.220;2023-06-26T10:01:23;6.00;;;2.87;;
74904;SDS011;63465;50.862;6.220;2023-06-26T10:03:51;5.47;;;2.70;;
74904;SDS011;63465;50.862;6.220;2023-06-26T10:06:22;11.80;;;2.70;;
74904;SDS011;63465;50.862;6.220;2023-06-26T10:08:51;4.77;;;2.17;;
74904;SDS011;63465;50.862;6.220;2023-06-26T10:11:19;10.07;;;2.20;;
74904;SDS011;63465;50.862;6.220;2023-06-26T10:13:46;9.00;;;1.83;;
74904;SDS011;63465;50.862;6.220;2023-06-26T10:16:16;3.80;;;2.20;;
74904;SDS011;63465;50.862;6.220;2023-06-26T10:18:46;6.63;;;2.20;;
74904;SDS011;63465;50.862;6.220;2023-06-26T10:21:15;4.53;;;2.10;;
74904;SDS011;63465;50.862;6.220;2023-06-26T10:23:41;11.10;;;2.40;;
74904;SDS011;63465;50.862;6.220;2023-06-26T10:26:09;7.00;;;2.30;;
74904;SDS011;63465;50.862;6.220;2023-06-26T10:28:36;5.17;;;2.33;;
74904;SDS011;63465;50.862;6.220;2023-06-26T10:31:03;6.60;;;1.77;;
74904;SDS011;63465;50.862;6.220;2023-06-26T10:33:32;4.27;;;2.30;;
74904;SDS011;63465;50.862;6.220;2023-06-26T10:36:12;6.50;;;2.70;;
74904;SDS011;63465;50.862;6.220;2023-06-26T10:38:48;4.20;;;3.07;;
74904;SDS011;63465;50.862;6.220;2023-06-26T10:41:23;5.40;;;2.40;;
74904;SDS011;63465;50.862;6.220;2023-06-26T10:43:50;3.20;;;1.90;;
74904;SDS011;63465;50.862;6.220;2023-06-26T10:46:17;3.70;;;2.40;;
74904;SDS011;63465;50.862;6.220;2023-06-26T10:48:55;2.83;;;1.97;;
74904;SDS011;63465;50.862;6.220;2023-06-26T10:51:22;6.80;;;2.60;;
74904;SDS011;63465;50.862;6.220;2023-06-26T10:53:57;2.13;;;1.93;;
74904;SDS011;63465;50.862;6.220;2023-06-26T10:56:40;5.03;;;2.00;;
74904;SDS011;63465;50.862;6.220;2023-06-26T10:59:11;2.47;;;2.10;;
74904;SDS011;63465;50.862;6.220;2023-06-26T11:01:40;6.00;;;2.10;;
74904;SDS011;63465;50.862;6.220;2023-06-26T11:04:07;2.57;;;2.10;;
74904;SDS011;63465;50.862;6.220;2023-06-26T11:06:33;5.30;;;2.20;;
74904;SDS011;63465;50.862;6.220;2023-06-26T11:09:01;4.23;;;2.37;;
74904;SDS011;63465;50.862;6.220;2023-06-26T11:14:17;4.60;;;2.33;;
74904;SDS011;63465;50.862;6.220;2023-06-26T11:16:43;2.97;;;2.07;;
74904;SDS011;63465;50.862;6.220;2023-06-26T11:19:09;7.63;;;2.70;;
74904;SDS011;63465;50.862;6.220;2023-06-26T11:21:35;6.30;;;2.47;;
74904;SDS011;63465;50.862;6.220;2023-06-26T11:24:02;3.83;;;1.87;;
74904;SDS011;63465;50.862;6.220;2023-06-26T11:26:29;4.50;;;2.20;;
74904;SDS011;63465;50.862;6.220;2023-06-26T11:28:55;5.47;;;1.90;;
74904;SDS011;63465;50.862;6.220;2023-06-26T11:31:39;9.77;;;2.13;;
74904;SDS011;63465;50.862;6.220;2023-06-26T11:34:09;6.50;;;2.50;;
74904;SDS011;63465;50.862;6.220;2023-06-26T11:36:36;2.20;;;2.00;;
74904;SDS011;63465;50.862;6.220;2023-06-26T11:39:03;3.93;;;2.17;;
74904;SDS011;63465;50.862;6.220;2023-06-26T11:41:31;2.73;;;2.13;;
74904;SDS011;63465;50.862;6.220;2023-06-26T11:44:01;8.63;;;2.30;;
74904;SDS011;63465;50.862;6.220;2023-06-26T11:46:27;5.33;;;2.30;;
74904;SDS011;63465;50.862;6.220;2023-06-26T11:48:53;2.07;;;1.53;;
74904;SDS011;63465;50.862;6.220;2023-06-26T11:51:19;7.43;;;2.43;;
74904;SDS011;63465;50.862;6.220;2023-06-26T11:53:45;3.10;;;2.00;;
74904;SDS011;63465;50.862;6.220;2023-06-26T11:56:13;6.87;;;2.27;;
74904;SDS011;63465;50.862;6.220;2023-06-26T12:04:12;4.20;;;2.00;;
74904;SDS011;63465;50.862;6.220;2023-06-26T12:06:40;4.00;;;2.17;;
74904;SDS011;63465;50.862;6.220;2023-06-26T12:09:11;4.20;;;2.27;;
74904;SDS011;63465;50.862;6.220;2023-06-26T12:11:38;7.60;;;1.87;;
74904;SDS011;63465;50.862;6.220;2023-06-26T12:14:05;2.13;;;1.90;;
74904;SDS011;63465;50.862;6.220;2023-06-26T12:16:31;3.30;;;1.90;;
74904;SDS011;63465;50.862;6.220;2023-06-26T12:19:02;6.57;;;2.23;;
74904;SDS011;63465;50.862;6.220;2023-06-26T12:24:03;4.20;;;3.10;;
74904;SDS011;63465;50.862;6.220;2023-06-26T12:26:30;10.23;;;2.03;;
74904;SDS011;63465;50.862;6.220;2023-06-26T12:29:05;3.70;;;1.60;;
74904;SDS011;63465;50.862;6.220;2023-06-26T12:31:32;8.33;;;1.83;;
74904;SDS011;63465;50.862;6.220;2023-06-26T12:33:58;2.73;;;2.20;;
74904;SDS011;63465;50.862;6.220;2023-06-26T12:36:23;7.83;;;1.90;;
74904;SDS011;63465;50.862;6.220;2023-06-26T12:38:49;4.73;;;2.03;;
74904;SDS011;63465;50.862;6.220;2023-06-26T12:41:15;4.50;;;1.43;;
74904;SDS011;63465;50.862;6.220;2023-06-26T12:43:41;5.70;;;1.63;;
74904;SDS011;63465;50.862;6.220;2023-06-26T12:46:07;3.67;;;1.50;;
74904;SDS011;63465;50.862;6.220;2023-06-26T12:48:42;3.13;;;1.77;;
74904;SDS011;63465;50.862;6.220;2023-06-26T12:51:10;2.80;;;1.67;;
74904;SDS011;63465;50.862;6.220;2023-06-26T12:53:37;4.80;;;1.87;;
74904;SDS011;63465;50.862;6.220;2023-06-26T12:56:04;2.83;;;1.80;;
74904;SDS011;63465;50.862;6.220;2023-06-26T12:58:31;2.13;;;1.77;;
74904;SDS011;63465;50.862;6.220;2023-06-26T13:00:56;9.83;;;2.03;;
74904;SDS011;63465;50.862;6.220;2023-06-26T13:03:22;3.43;;;1.87;;
74904;SDS011;63465;50.862;6.220;2023-06-26T13:05:48;1.63;;;1.40;;
74904;SDS011;63465;50.862;6.220;2023-06-26T13:08:13;6.73;;;1.50;;
74904;SDS011;63465;50.862;6.220;2023-06-26T13:10:42;10.37;;;1.90;;
74904;SDS011;63465;50.862;6.220;2023-06-26T13:13:09;5.13;;;1.80;;
74904;SDS011;63465;50.862;6.220;2023-06-26T13:15:35;5.40;;;1.73;;
74904;SDS011;63465;50.862;6.220;2023-06-26T13:18:00;4.80;;;1.43;;
74904;SDS011;63465;50.862;6.220;2023-06-26T13:20:26;1.70;;;1.60;;
74904;SDS011;63465;50.862;6.220;2023-06-26T13:22:51;4.37;;;1.40;;
74904;SDS011;63465;50.862;6.220;2023-06-26T13:25:17;5.87;;;1.87;;
74904;SDS011;63465;50.862;6.220;2023-06-26T13:27:42;3.23;;;1.60;;
74904;SDS011;63465;50.862;6.220;2023-06-26T13:30:07;8.17;;;2.53;;
74904;SDS011;63465;50.862;6.220;2023-06-26T13:32:33;4.53;;;1.70;;
74904;SDS011;63465;50.862;6.220;2023-06-26T13:34:58;3.13;;;2.07;;
74904;SDS011;63465;50.862;6.220;2023-06-26T13:37:24;2.80;;;1.67;;
74904;SDS011;63465;50.862;6.220;2023-06-26T13:39:49;3.33;;;1.70;;
74904;SDS011;63465;50.862;6.220;2023-06-26T13:42:16;3.33;;;1.83;;
74904;SDS011;63465;50.862;6.220;2023-06-26T13:44:42;1.50;;;1.40;;
74904;SDS011;63465;50.862;6.220;2023-06-26T13:47:07;2.07;;;1.60;;
74904;SDS011;63465;50.862;6.220;2023-06-26T13:49:33;2.50;;;1.60;;
74904;SDS011;63465;50.862;6.220;2023-06-26T13:51:58;3.13;;;1.80;;
74904;SDS011;63465;50.862;6.220;2023-06-26T13:54:24;3.97;;;2.10;;
74904;SDS011;63465;50.862;6.220;2023-06-26T13:56:49;3.03;;;1.80;;
74904;SDS011;63465;50.862;6.220;2023-06-26T13:59:14;6.60;;;2.13;;
74904;SDS011;63465;50.862;6.220;2023-06-26T14:01:40;3.53;;;1.70;;
74904;SDS011;63465;50.862;6.220;2023-06-26T14:04:07;8.30;;;1.70;;
74904;SDS011;63465;50.862;6.220;2023-06-26T14:06:33;4.57;;;1.47;;
74904;SDS011;63465;50.862;6.220;2023-06-26T14:08:59;3.33;;;1.80;;
74904;SDS011;63465;50.862;6.220;2023-06-26T14:11:25;3.20;;;1.80;;
74904;SDS011;63465;50.862;6.220;2023-06-26T14:13:51;1.80;;;1.60;;
74904;SDS011;63465;50.862;6.220;2023-06-26T14:16:16;7.70;;;2.23;;
74904;SDS011;63465;50.862;6.220;2023-06-26T14:18:43;3.63;;;2.10;;
74904;SDS011;63465;50.862;6.220;2023-06-26T14:21:08;2.63;;;1.43;;
74904;SDS011;63465;50.862;6.220;2023-06-26T14:23:34;3.33;;;2.23;;
74904;SDS011;63465;50.862;6.220;2023-06-26T14:26:00;3.43;;;1.73;;
74904;SDS011;63465;50.862;6.220;2023-06-26T14:28:25;5.60;;;1.80;;
74904;SDS011;63465;50.862;6.220;2023-06-26T14:30:50;2.37;;;2.10;;
74904;SDS011;63465;50.862;6.220;2023-06-26T14:33:16;3.50;;;2.27;;
74904;SDS011;63465;50.862;6.220;2023-06-26T14:35:41;3.70;;;2.03;;
74904;SDS011;63465;50.862;6.220;2023-06-26T14:38:06;3.27;;;2.20;;
74904;SDS011;63465;50.862;6.220;2023-06-26T14:40:32;2.73;;;1.60;;
74904;SDS011;63465;50.862;6.220;2023-06-26T14:42:57;4.97;;;2.17;;
74904;SDS011;63465;50.862;6.220;2023-06-26T14:45:22;3.83;;;1.80;;
74904;SDS011;63465;50.862;6.220;2023-06-26T14:47:48;2.60;;;2.03;;
74904;SDS011;63465;50.862;6.220;2023-06-26T14:50:13;4.17;;;2.30;;
74904;SDS011;63465;50.862;6.220;2023-06-26T14:52:38;7.63;;;1.93;;
74904;SDS011;63465;50.862;6.220;2023-06-26T14:55:04;7.77;;;2.20;;